Istrana Airport LIPS

Flugplatz Daten

Name: Istrana Airport

Ident: LIPS

Lat: 45,68489838

Long: 12,08290005

Platzhöhe: 137 ft

IataCode:

City: Istrana

Metar

2022/08/13 17:55
LIPS 131755Z /////KT CAVOK 26/16 Q1012 RMK BKN BKN140 VIS MIN 9999 WIND THR26 09005KT WIND THR08 13004KT BLU

Taf

2020/04/14 06:24
TAF TAF LIPS 140800Z 1406/1418 05010KT CAVOK
Gewünschte Webcam nicht vorhanden? Dann fügen Sie eine hinzu. Sie wird dann so schnell wie möglich freigeschaltet
Url: Title: